sensor_id;sensor_type;location;lat;lon;timestamp;temperature;humidity
3998;DHT22;61314;53.444;9.902;2022-12-31T00:00:06;10.00;99.90
3998;DHT22;61314;53.444;9.902;2022-12-31T00:02:34;10.00;99.90
3998;DHT22;61314;53.444;9.902;2022-12-31T00:05:01;10.10;99.90
3998;DHT22;61314;53.444;9.902;2022-12-31T00:07:27;10.00;99.90
3998;DHT22;61314;53.444;9.902;2022-12-31T00:09:54;10.00;99.90
3998;DHT22;61314;53.444;9.902;2022-12-31T00:12:21;10.10;99.90
3998;DHT22;61314;53.444;9.902;2022-12-31T00:14:47;10.10;99.90
3998;DHT22;61314;53.444;9.902;2022-12-31T00:17:14;10.10;99.90
3998;DHT22;61314;53.444;9.902;2022-12-31T00:19:40;10.00;99.90
3998;DHT22;61314;53.444;9.902;2022-12-31T00:24:34;10.10;99.90
3998;DHT22;61314;53.444;9.902;2022-12-31T00:27:01;10.60;99.90
3998;DHT22;61314;53.444;9.902;2022-12-31T00:29:27;10.30;99.90
3998;DHT22;61314;53.444;9.902;2022-12-31T00:31:54;10.10;99.90
3998;DHT22;61314;53.444;9.902;2022-12-31T00:34:21;10.30;99.90
3998;DHT22;61314;53.444;9.902;2022-12-31T00:36:47;10.30;99.90
3998;DHT22;61314;53.444;9.902;2022-12-31T00:41:42;10.50;99.90
3998;DHT22;61314;53.444;9.902;2022-12-31T00:44:12;10.10;99.90
3998;DHT22;61314;53.444;9.902;2022-12-31T00:46:39;10.40;99.90
3998;DHT22;61314;53.444;9.902;2022-12-31T00:49:05;10.20;99.90
3998;DHT22;61314;53.444;9.902;2022-12-31T00:51:34;10.40;99.90
3998;DHT22;61314;53.444;9.902;2022-12-31T00:54:01;10.20;99.90
3998;DHT22;61314;53.444;9.902;2022-12-31T00:56:29;10.30;99.90
3998;DHT22;61314;53.444;9.902;2022-12-31T01:01:26;10.50;99.90
3998;DHT22;61314;53.444;9.902;2022-12-31T01:08:50;10.60;99.90
3998;DHT22;61314;53.444;9.902;2022-12-31T01:11:18;10.50;99.90
3998;DHT22;61314;53.444;9.902;2022-12-31T01:16:18;10.60;99.90
3998;DHT22;61314;53.444;9.902;2022-12-31T01:18:45;10.60;99.90
3998;DHT22;61314;53.444;9.902;2022-12-31T01:21:12;10.50;99.90
3998;DHT22;61314;53.444;9.902;2022-12-31T02:21:45;11.00;99.90
3998;DHT22;61314;53.444;9.902;2022-12-31T02:24:37;11.00;99.90
3998;DHT22;61314;53.444;9.902;2022-12-31T02:27:26;11.00;99.90
3998;DHT22;61314;53.444;9.902;2022-12-31T02:30:13;11.00;99.90
3998;DHT22;61314;53.444;9.902;2022-12-31T02:33:00;11.00;99.90
3998;DHT22;61314;53.444;9.902;2022-12-31T02:35:32;11.00;99.90
3998;DHT22;61314;53.444;9.902;2022-12-31T02:38:04;11.00;99.90
3998;DHT22;61314;53.444;9.902;2022-12-31T02:40:34;11.00;99.90
3998;DHT22;61314;53.444;9.902;2022-12-31T02:43:02;11.10;99.90
3998;DHT22;61314;53.444;9.902;2022-12-31T02:45:35;11.10;99.90
3998;DHT22;61314;53.444;9.902;2022-12-31T02:48:18;11.10;99.90
3998;DHT22;61314;53.444;9.902;2022-12-31T02:50:59;11.10;99.90
3998;DHT22;61314;53.444;9.902;2022-12-31T02:53:42;11.10;99.90
3998;DHT22;61314;53.444;9.902;2022-12-31T18:08:30;13.00;99.90
3998;DHT22;61314;53.444;9.902;2022-12-31T18:10:57;13.00;99.90
3998;DHT22;61314;53.444;9.902;2022-12-31T18:13:24;13.00;99.90
3998;DHT22;61314;53.444;9.902;2022-12-31T18:15:52;13.00;99.90
3998;DHT22;61314;53.444;9.902;2022-12-31T18:18:26;13.00;99.90
3998;DHT22;61314;53.444;9.902;2022-12-31T18:20:57;13.10;99.90
3998;DHT22;61314;53.444;9.902;2022-12-31T18:23:36;13.10;99.90
3998;DHT22;61314;53.444;9.902;2022-12-31T18:26:03;13.10;99.90
3998;DHT22;61314;53.444;9.902;2022-12-31T18:28:30;13.00;99.90
3998;DHT22;61314;53.444;9.902;2022-12-31T18:30:56;13.10;99.90
3998;DHT22;61314;53.444;9.902;2022-12-31T18:33:25;13.10;99.90
3998;DHT22;61314;53.444;9.902;2022-12-31T18:35:52;13.00;99.90
3998;DHT22;61314;53.444;9.902;2022-12-31T18:38:36;13.00;99.90
3998;DHT22;61314;53.444;9.902;2022-12-31T18:41:03;13.10;99.90
3998;DHT22;61314;53.444;9.902;2022-12-31T18:43:29;13.00;99.90
3998;DHT22;61314;53.444;9.902;2022-12-31T18:45:57;13.00;99.90
3998;DHT22;61314;53.444;9.902;2022-12-31T18:48:24;13.00;99.90
3998;DHT22;61314;53.444;9.902;2022-12-31T18:50:50;13.00;99.90
3998;DHT22;61314;53.444;9.902;2022-12-31T18:53:19;13.00;99.90
3998;DHT22;61314;53.444;9.902;2022-12-31T18:55:52;13.00;99.90
3998;DHT22;61314;53.444;9.902;2022-12-31T18:58:20;13.00;99.90
3998;DHT22;61314;53.444;9.902;2022-12-31T19:00:48;13.00;99.90
3998;DHT22;61314;53.444;9.902;2022-12-31T19:03:17;13.00;99.90
3998;DHT22;61314;53.444;9.902;2022-12-31T19:05:44;13.00;99.90
3998;DHT22;61314;53.444;9.902;2022-12-31T19:08:24;13.00;99.90
3998;DHT22;61314;53.444;9.902;2022-12-31T19:10:51;13.00;99.90
3998;DHT22;61314;53.444;9.902;2022-12-31T19:13:18;13.00;99.90
3998;DHT22;61314;53.444;9.902;2022-12-31T19:15:50;13.00;99.90
3998;DHT22;61314;53.444;9.902;2022-12-31T19:18:17;13.00;99.90
3998;DHT22;61314;53.444;9.902;2022-12-31T19:20:44;13.00;99.90
3998;DHT22;61314;53.444;9.902;2022-12-31T19:23:16;13.00;99.90
3998;DHT22;61314;53.444;9.902;2022-12-31T19:25:43;13.00;99.90
3998;DHT22;61314;53.444;9.902;2022-12-31T19:28:20;13.00;99.90
3998;DHT22;61314;53.444;9.902;2022-12-31T19:30:47;13.00;99.90
3998;DHT22;61314;53.444;9.902;2022-12-31T19:33:14;13.00;99.90
3998;DHT22;61314;53.444;9.902;2022-12-31T19:35:41;13.00;99.90
3998;DHT22;61314;53.444;9.902;2022-12-31T19:38:17;13.00;99.90
3998;DHT22;61314;53.444;9.902;2022-12-31T19:40:44;13.00;99.90
3998;DHT22;61314;53.444;9.902;2022-12-31T19:43:12;13.00;99.90
3998;DHT22;61314;53.444;9.902;2022-12-31T19:45:41;13.00;99.90
3998;DHT22;61314;53.444;9.902;2022-12-31T19:48:10;13.00;99.90
3998;DHT22;61314;53.444;9.902;2022-12-31T19:50:41;13.00;99.90
3998;DHT22;61314;53.444;9.902;2022-12-31T19:53:11;13.00;99.90
3998;DHT22;61314;53.444;9.902;2022-12-31T19:55:39;13.00;99.90
3998;DHT22;61314;53.444;9.902;2022-12-31T19:58:06;13.00;99.90
3998;DHT22;61314;53.444;9.902;2022-12-31T20:00:32;13.00;99.90
3998;DHT22;61314;53.444;9.902;2022-12-31T20:02:59;13.00;99.90
3998;DHT22;61314;53.444;9.902;2022-12-31T20:05:26;13.00;99.90
3998;DHT22;61314;53.444;9.902;2022-12-31T20:07:53;13.00;99.90
3998;DHT22;61314;53.444;9.902;2022-12-31T20:10:20;13.00;99.90
3998;DHT22;61314;53.444;9.902;2022-12-31T20:12:46;13.00;99.90
3998;DHT22;61314;53.444;9.902;2022-12-31T20:15:13;13.00;99.90
3998;DHT22;61314;53.444;9.902;2022-12-31T20:17:39;13.00;99.90
3998;DHT22;61314;53.444;9.902;2022-12-31T20:20:06;13.00;99.90
3998;DHT22;61314;53.444;9.902;2022-12-31T20:22:33;13.00;99.90
3998;DHT22;61314;53.444;9.902;2022-12-31T20:25:00;13.00;99.90
3998;DHT22;61314;53.444;9.902;2022-12-31T20:27:26;13.00;99.90
3998;DHT22;61314;53.444;9.902;2022-12-31T20:29:53;13.00;99.90
3998;DHT22;61314;53.444;9.902;2022-12-31T20:32:19;13.00;99.90
3998;DHT22;61314;53.444;9.902;2022-12-31T20:34:46;13.00;99.90
3998;DHT22;61314;53.444;9.902;2022-12-31T20:37:13;13.00;99.90
3998;DHT22;61314;53.444;9.902;2022-12-31T20:39:39;13.00;99.90
3998;DHT22;61314;53.444;9.902;2022-12-31T20:42:06;13.00;99.90
3998;DHT22;61314;53.444;9.902;2022-12-31T20:44:32;13.00;99.90
3998;DHT22;61314;53.444;9.902;2022-12-31T20:46:59;13.00;99.90
3998;DHT22;61314;53.444;9.902;2022-12-31T20:49:26;13.00;99.90
3998;DHT22;61314;53.444;9.902;2022-12-31T20:52:12;13.10;99.90
3998;DHT22;61314;53.444;9.902;2022-12-31T20:54:39;13.10;99.90
3998;DHT22;61314;53.444;9.902;2022-12-31T20:57:05;13.10;99.90
3998;DHT22;61314;53.444;9.902;2022-12-31T20:59:32;13.10;99.90
3998;DHT22;61314;53.444;9.902;2022-12-31T21:01:59;13.10;99.90
3998;DHT22;61314;53.444;9.902;2022-12-31T21:04:45;13.10;99.90
3998;DHT22;61314;53.444;9.902;2022-12-31T21:07:12;13.10;99.90
3998;DHT22;61314;53.444;9.902;2022-12-31T21:09:39;13.10;99.90
3998;DHT22;61314;53.444;9.902;2022-12-31T21:12:05;13.10;99.90
3998;DHT22;61314;53.444;9.902;2022-12-31T21:14:50;13.20;99.90
3998;DHT22;61314;53.444;9.902;2022-12-31T21:17:17;13.20;99.90
3998;DHT22;61314;53.444;9.902;2022-12-31T21:19:43;13.20;99.90
3998;DHT22;61314;53.444;9.902;2022-12-31T21:22:10;13.20;99.90
3998;DHT22;61314;53.444;9.902;2022-12-31T21:24:36;13.20;99.90
3998;DHT22;61314;53.444;9.902;2022-12-31T21:27:05;13.20;99.90
3998;DHT22;61314;53.444;9.902;2022-12-31T21:29:31;13.20;99.90
3998;DHT22;61314;53.444;9.902;2022-12-31T21:32:02;13.20;99.90
3998;DHT22;61314;53.444;9.902;2022-12-31T21:34:29;13.20;99.90
3998;DHT22;61314;53.444;9.902;2022-12-31T21:36:56;13.20;99.90
3998;DHT22;61314;53.444;9.902;2022-12-31T21:39:22;13.20;99.90
3998;DHT22;61314;53.444;9.902;2022-12-31T21:41:49;13.20;99.90
3998;DHT22;61314;53.444;9.902;2022-12-31T21:44:21;13.20;99.90
3998;DHT22;61314;53.444;9.902;2022-12-31T21:46:56;13.10;99.90
3998;DHT22;61314;53.444;9.902;2022-12-31T21:50:04;13.20;99.90
3998;DHT22;61314;53.444;9.902;2022-12-31T21:52:30;13.20;99.90
3998;DHT22;61314;53.444;9.902;2022-12-31T21:55:01;13.20;99.90
3998;DHT22;61314;53.444;9.902;2022-12-31T21:57:48;13.20;99.90
3998;DHT22;61314;53.444;9.902;2022-12-31T22:00:35;13.20;99.90
3998;DHT22;61314;53.444;9.902;2022-12-31T22:03:20;13.20;99.90
3998;DHT22;61314;53.444;9.902;2022-12-31T22:06:02;13.20;99.90
3998;DHT22;61314;53.444;9.902;2022-12-31T22:08:36;13.20;99.90
3998;DHT22;61314;53.444;9.902;2022-12-31T22:11:03;13.20;99.90
3998;DHT22;61314;53.444;9.902;2022-12-31T22:13:31;13.20;99.90
3998;DHT22;61314;53.444;9.902;2022-12-31T22:15:59;13.10;99.90
3998;DHT22;61314;53.444;9.902;2022-12-31T22:18:32;13.20;99.90
3998;DHT22;61314;53.444;9.902;2022-12-31T22:21:06;13.10;99.90
3998;DHT22;61314;53.444;9.902;2022-12-31T22:23:44;13.20;99.90
3998;DHT22;61314;53.444;9.902;2022-12-31T22:26:13;13.20;99.90
3998;DHT22;61314;53.444;9.902;2022-12-31T22:28:42;13.20;99.90
3998;DHT22;61314;53.444;9.902;2022-12-31T22:31:20;13.20;99.90
3998;DHT22;61314;53.444;9.902;2022-12-31T22:33:48;13.20;99.90
3998;DHT22;61314;53.444;9.902;2022-12-31T22:36:17;13.20;99.90
3998;DHT22;61314;53.444;9.902;2022-12-31T22:38:45;13.20;99.90
3998;DHT22;61314;53.444;9.902;2022-12-31T22:41:15;13.20;99.90
3998;DHT22;61314;53.444;9.902;2022-12-31T22:43:45;13.20;99.90
3998;DHT22;61314;53.444;9.902;2022-12-31T22:46:17;13.20;99.90
3998;DHT22;61314;53.444;9.902;2022-12-31T22:48:45;13.20;99.90
3998;DHT22;61314;53.444;9.902;2022-12-31T22:51:14;13.20;99.90
3998;DHT22;61314;53.444;9.902;2022-12-31T22:53:41;13.20;99.90
3998;DHT22;61314;53.444;9.902;2022-12-31T22:56:10;13.20;99.90
3998;DHT22;61314;53.444;9.902;2022-12-31T22:58:37;13.20;99.90
3998;DHT22;61314;53.444;9.902;2022-12-31T23:01:05;13.20;99.90
3998;DHT22;61314;53.444;9.902;2022-12-31T23:03:32;13.20;99.90
3998;DHT22;61314;53.444;9.902;2022-12-31T23:05:59;13.20;99.90
3998;DHT22;61314;53.444;9.902;2022-12-31T23:08:25;13.20;99.90
3998;DHT22;61314;53.444;9.902;2022-12-31T23:10:52;13.20;99.90
3998;DHT22;61314;53.444;9.902;2022-12-31T23:13:35;13.20;99.90
3998;DHT22;61314;53.444;9.902;2022-12-31T23:16:22;13.20;99.90
3998;DHT22;61314;53.444;9.902;2022-12-31T23:19:07;13.20;99.90
3998;DHT22;61314;53.444;9.902;2022-12-31T23:21:52;13.20;99.90
3998;DHT22;61314;53.444;9.902;2022-12-31T23:24:38;13.20;99.90
3998;DHT22;61314;53.444;9.902;2022-12-31T23:27:05;13.30;99.90
3998;DHT22;61314;53.444;9.902;2022-12-31T23:29:32;13.20;99.90
3998;DHT22;61314;53.444;9.902;2022-12-31T23:31:59;13.30;99.90
3998;DHT22;61314;53.444;9.902;2022-12-31T23:34:25;13.30;99.90
3998;DHT22;61314;53.444;9.902;2022-12-31T23:36:52;13.30;99.90
3998;DHT22;61314;53.444;9.902;2022-12-31T23:39:18;13.30;99.90
3998;DHT22;61314;53.444;9.902;2022-12-31T23:41:45;13.30;99.90
3998;DHT22;61314;53.444;9.902;2022-12-31T23:44:11;13.30;99.90
3998;DHT22;61314;53.444;9.902;2022-12-31T23:46:39;13.30;99.90
3998;DHT22;61314;53.444;9.902;2022-12-31T23:49:06;13.30;99.90
3998;DHT22;61314;53.444;9.902;2022-12-31T23:51:32;13.30;99.90
3998;DHT22;61314;53.444;9.902;2022-12-31T23:54:02;13.30;99.90
3998;DHT22;61314;53.444;9.902;2022-12-31T23:56:29;13.30;99.90
3998;DHT22;61314;53.444;9.902;2022-12-31T23:58:57;13.40;99.90
